sensor_id;sensor_type;location;lat;lon;timestamp;P1;durP1;ratioP1;P2;durP2;ratioP2
6388;SDS011;3227;42.654;23.360;2024-02-26T00:02:05;15.27;;;8.60;;
6388;SDS011;3227;42.654;23.360;2024-02-26T00:04:33;18.30;;;9.07;;
6388;SDS011;3227;42.654;23.360;2024-02-26T00:06:59;14.90;;;8.30;;
6388;SDS011;3227;42.654;23.360;2024-02-26T00:09:25;16.33;;;8.60;;
6388;SDS011;3227;42.654;23.360;2024-02-26T00:11:53;12.63;;;7.60;;
6388;SDS011;3227;42.654;23.360;2024-02-26T00:14:20;15.47;;;7.77;;
6388;SDS011;3227;42.654;23.360;2024-02-26T00:16:47;17.37;;;7.87;;
6388;SDS011;3227;42.654;23.360;2024-02-26T00:19:14;14.10;;;7.20;;
6388;SDS011;3227;42.654;23.360;2024-02-26T00:21:40;12.83;;;7.07;;
6388;SDS011;3227;42.654;23.360;2024-02-26T00:24:07;12.90;;;7.43;;
6388;SDS011;3227;42.654;23.360;2024-02-26T00:26:34;17.23;;;8.23;;
6388;SDS011;3227;42.654;23.360;2024-02-26T00:29:02;15.77;;;8.27;;
6388;SDS011;3227;42.654;23.360;2024-02-26T00:31:29;15.20;;;8.13;;
6388;SDS011;3227;42.654;23.360;2024-02-26T00:33:55;16.60;;;9.43;;
6388;SDS011;3227;42.654;23.360;2024-02-26T00:36:22;15.17;;;8.73;;
6388;SDS011;3227;42.654;23.360;2024-02-26T00:38:49;16.87;;;8.27;;
6388;SDS011;3227;42.654;23.360;2024-02-26T00:41:16;13.93;;;8.10;;
6388;SDS011;3227;42.654;23.360;2024-02-26T00:43:43;14.30;;;8.57;;
6388;SDS011;3227;42.654;23.360;2024-02-26T00:46:11;15.60;;;8.30;;
6388;SDS011;3227;42.654;23.360;2024-02-26T00:48:38;14.80;;;8.10;;
6388;SDS011;3227;42.654;23.360;2024-02-26T00:51:05;16.37;;;8.13;;
6388;SDS011;3227;42.654;23.360;2024-02-26T00:53:32;13.33;;;7.97;;
6388;SDS011;3227;42.654;23.360;2024-02-26T00:55:59;16.10;;;8.90;;
6388;SDS011;3227;42.654;23.360;2024-02-26T00:58:26;13.93;;;8.10;;
6388;SDS011;3227;42.654;23.360;2024-02-26T01:00:53;15.60;;;7.87;;
6388;SDS011;3227;42.654;23.360;2024-02-26T01:03:21;15.63;;;8.53;;
6388;SDS011;3227;42.654;23.360;2024-02-26T01:05:48;14.00;;;8.37;;
6388;SDS011;3227;42.654;23.360;2024-02-26T01:08:14;11.70;;;7.63;;
6388;SDS011;3227;42.654;23.360;2024-02-26T01:10:41;16.07;;;7.67;;
6388;SDS011;3227;42.654;23.360;2024-02-26T01:13:08;16.70;;;7.60;;
6388;SDS011;3227;42.654;23.360;2024-02-26T01:15:35;13.83;;;7.80;;
6388;SDS011;3227;42.654;23.360;2024-02-26T01:18:01;13.70;;;7.83;;
6388;SDS011;3227;42.654;23.360;2024-02-26T01:20:30;13.30;;;7.73;;
6388;SDS011;3227;42.654;23.360;2024-02-26T01:22:56;14.33;;;8.50;;
6388;SDS011;3227;42.654;23.360;2024-02-26T01:25:23;14.80;;;7.30;;
6388;SDS011;3227;42.654;23.360;2024-02-26T01:27:50;14.50;;;7.93;;
6388;SDS011;3227;42.654;23.360;2024-02-26T01:30:16;18.33;;;8.80;;
6388;SDS011;3227;42.654;23.360;2024-02-26T01:32:43;14.03;;;8.43;;
6388;SDS011;3227;42.654;23.360;2024-02-26T01:35:10;15.80;;;8.53;;
6388;SDS011;3227;42.654;23.360;2024-02-26T01:37:38;16.40;;;8.40;;
6388;SDS011;3227;42.654;23.360;2024-02-26T01:40:07;16.90;;;8.70;;
6388;SDS011;3227;42.654;23.360;2024-02-26T01:42:34;15.43;;;9.07;;
6388;SDS011;3227;42.654;23.360;2024-02-26T01:45:01;16.57;;;8.33;;
6388;SDS011;3227;42.654;23.360;2024-02-26T01:47:28;16.43;;;9.60;;
6388;SDS011;3227;42.654;23.360;2024-02-26T01:49:55;13.37;;;8.43;;
6388;SDS011;3227;42.654;23.360;2024-02-26T01:52:22;16.80;;;8.80;;
6388;SDS011;3227;42.654;23.360;2024-02-26T01:54:50;18.03;;;9.10;;
6388;SDS011;3227;42.654;23.360;2024-02-26T01:57:17;16.77;;;8.60;;
6388;SDS011;3227;42.654;23.360;2024-02-26T01:59:44;16.87;;;9.27;;
6388;SDS011;3227;42.654;23.360;2024-02-26T02:02:11;16.63;;;8.50;;
6388;SDS011;3227;42.654;23.360;2024-02-26T02:04:39;13.73;;;8.47;;
6388;SDS011;3227;42.654;23.360;2024-02-26T02:07:06;16.50;;;8.47;;
6388;SDS011;3227;42.654;23.360;2024-02-26T02:09:33;17.97;;;9.17;;
6388;SDS011;3227;42.654;23.360;2024-02-26T02:12:01;15.90;;;9.20;;
6388;SDS011;3227;42.654;23.360;2024-02-26T02:14:28;16.67;;;9.03;;
6388;SDS011;3227;42.654;23.360;2024-02-26T02:16:55;16.17;;;9.63;;
6388;SDS011;3227;42.654;23.360;2024-02-26T02:19:22;15.00;;;8.17;;
6388;SDS011;3227;42.654;23.360;2024-02-26T02:21:50;17.20;;;8.97;;
6388;SDS011;3227;42.654;23.360;2024-02-26T02:24:16;17.40;;;8.60;;
6388;SDS011;3227;42.654;23.360;2024-02-26T02:26:43;16.73;;;9.00;;
6388;SDS011;3227;42.654;23.360;2024-02-26T02:29:10;15.97;;;9.60;;
6388;SDS011;3227;42.654;23.360;2024-02-26T02:31:38;15.47;;;8.57;;
6388;SDS011;3227;42.654;23.360;2024-02-26T02:34:05;16.50;;;9.27;;
6388;SDS011;3227;42.654;23.360;2024-02-26T02:36:32;16.80;;;9.50;;
6388;SDS011;3227;42.654;23.360;2024-02-26T02:39:01;17.83;;;9.80;;
6388;SDS011;3227;42.654;23.360;2024-02-26T02:41:28;16.73;;;9.80;;
6388;SDS011;3227;42.654;23.360;2024-02-26T02:43:55;16.40;;;9.30;;
6388;SDS011;3227;42.654;23.360;2024-02-26T02:46:22;17.33;;;10.13;;
6388;SDS011;3227;42.654;23.360;2024-02-26T02:48:49;17.30;;;8.93;;
6388;SDS011;3227;42.654;23.360;2024-02-26T02:51:15;14.90;;;9.27;;
6388;SDS011;3227;42.654;23.360;2024-02-26T02:53:42;24.00;;;9.73;;
6388;SDS011;3227;42.654;23.360;2024-02-26T02:56:10;19.23;;;9.37;;
6388;SDS011;3227;42.654;23.360;2024-02-26T02:58:37;16.40;;;9.13;;
6388;SDS011;3227;42.654;23.360;2024-02-26T03:01:04;16.67;;;9.27;;
6388;SDS011;3227;42.654;23.360;2024-02-26T03:03:30;18.80;;;9.37;;
6388;SDS011;3227;42.654;23.360;2024-02-26T03:05:57;16.53;;;9.13;;
6388;SDS011;3227;42.654;23.360;2024-02-26T03:08:24;16.87;;;9.30;;
6388;SDS011;3227;42.654;23.360;2024-02-26T03:10:51;17.70;;;9.23;;
6388;SDS011;3227;42.654;23.360;2024-02-26T03:13:19;16.20;;;9.50;;
6388;SDS011;3227;42.654;23.360;2024-02-26T03:15:46;14.20;;;8.83;;
6388;SDS011;3227;42.654;23.360;2024-02-26T03:18:13;15.73;;;8.67;;
6388;SDS011;3227;42.654;23.360;2024-02-26T03:20:39;18.13;;;9.73;;
6388;SDS011;3227;42.654;23.360;2024-02-26T03:23:06;17.27;;;9.43;;
6388;SDS011;3227;42.654;23.360;2024-02-26T03:25:37;15.00;;;8.43;;
6388;SDS011;3227;42.654;23.360;2024-02-26T03:28:03;15.20;;;9.40;;
6388;SDS011;3227;42.654;23.360;2024-02-26T03:30:32;16.47;;;8.10;;
6388;SDS011;3227;42.654;23.360;2024-02-26T03:32:59;16.27;;;9.53;;
6388;SDS011;3227;42.654;23.360;2024-02-26T03:35:26;16.40;;;9.33;;
6388;SDS011;3227;42.654;23.360;2024-02-26T03:37:53;15.37;;;9.50;;
6388;SDS011;3227;42.654;23.360;2024-02-26T03:40:19;15.90;;;8.90;;
6388;SDS011;3227;42.654;23.360;2024-02-26T03:42:46;16.87;;;9.37;;
6388;SDS011;3227;42.654;23.360;2024-02-26T03:45:13;17.60;;;9.37;;
6388;SDS011;3227;42.654;23.360;2024-02-26T03:47:41;17.83;;;9.63;;
6388;SDS011;3227;42.654;23.360;2024-02-26T03:50:07;19.17;;;9.57;;
6388;SDS011;3227;42.654;23.360;2024-02-26T03:52:34;20.70;;;9.97;;
6388;SDS011;3227;42.654;23.360;2024-02-26T03:55:01;20.37;;;10.63;;
6388;SDS011;3227;42.654;23.360;2024-02-26T03:57:43;19.23;;;10.40;;
6388;SDS011;3227;42.654;23.360;2024-02-26T04:00:10;18.40;;;9.93;;
6388;SDS011;3227;42.654;23.360;2024-02-26T04:02:37;21.37;;;11.37;;
6388;SDS011;3227;42.654;23.360;2024-02-26T04:05:08;15.80;;;9.00;;
6388;SDS011;3227;42.654;23.360;2024-02-26T04:07:36;15.40;;;8.47;;
6388;SDS011;3227;42.654;23.360;2024-02-26T04:10:03;14.53;;;8.87;;
6388;SDS011;3227;42.654;23.360;2024-02-26T04:12:34;17.90;;;9.73;;
6388;SDS011;3227;42.654;23.360;2024-02-26T04:15:01;16.17;;;10.13;;
6388;SDS011;3227;42.654;23.360;2024-02-26T04:17:28;18.20;;;10.37;;
6388;SDS011;3227;42.654;23.360;2024-02-26T04:19:55;17.20;;;10.00;;
6388;SDS011;3227;42.654;23.360;2024-02-26T04:22:23;21.50;;;11.67;;
6388;SDS011;3227;42.654;23.360;2024-02-26T04:24:50;17.43;;;10.80;;
6388;SDS011;3227;42.654;23.360;2024-02-26T04:27:16;18.50;;;10.63;;
6388;SDS011;3227;42.654;23.360;2024-02-26T04:29:43;20.33;;;10.07;;
6388;SDS011;3227;42.654;23.360;2024-02-26T04:32:10;20.37;;;11.37;;
6388;SDS011;3227;42.654;23.360;2024-02-26T04:34:36;16.63;;;10.07;;
6388;SDS011;3227;42.654;23.360;2024-02-26T04:37:03;15.03;;;9.43;;
6388;SDS011;3227;42.654;23.360;2024-02-26T04:39:31;17.23;;;8.83;;
6388;SDS011;3227;42.654;23.360;2024-02-26T04:41:57;14.77;;;8.57;;
6388;SDS011;3227;42.654;23.360;2024-02-26T04:44:23;14.90;;;9.43;;
6388;SDS011;3227;42.654;23.360;2024-02-26T04:46:50;18.27;;;9.27;;
6388;SDS011;3227;42.654;23.360;2024-02-26T04:49:17;15.27;;;8.50;;
6388;SDS011;3227;42.654;23.360;2024-02-26T04:51:43;14.30;;;7.90;;
6388;SDS011;3227;42.654;23.360;2024-02-26T04:54:10;14.47;;;8.40;;
6388;SDS011;3227;42.654;23.360;2024-02-26T04:56:38;20.33;;;12.10;;
6388;SDS011;3227;42.654;23.360;2024-02-26T04:59:05;18.33;;;9.47;;
6388;SDS011;3227;42.654;23.360;2024-02-26T05:01:32;17.13;;;8.93;;
6388;SDS011;3227;42.654;23.360;2024-02-26T05:03:58;15.20;;;9.70;;
6388;SDS011;3227;42.654;23.360;2024-02-26T05:06:25;16.73;;;9.80;;
6388;SDS011;3227;42.654;23.360;2024-02-26T05:08:52;15.00;;;8.80;;
6388;SDS011;3227;42.654;23.360;2024-02-26T05:11:18;13.30;;;8.10;;
6388;SDS011;3227;42.654;23.360;2024-02-26T05:13:47;12.53;;;7.80;;
6388;SDS011;3227;42.654;23.360;2024-02-26T05:16:14;15.67;;;8.73;;
6388;SDS011;3227;42.654;23.360;2024-02-26T05:18:40;13.47;;;8.00;;
6388;SDS011;3227;42.654;23.360;2024-02-26T05:21:07;17.97;;;7.97;;
6388;SDS011;3227;42.654;23.360;2024-02-26T05:23:34;13.43;;;7.80;;
6388;SDS011;3227;42.654;23.360;2024-02-26T05:26:00;18.93;;;9.67;;
6388;SDS011;3227;42.654;23.360;2024-02-26T05:28:27;18.87;;;10.60;;
6388;SDS011;3227;42.654;23.360;2024-02-26T05:30:55;16.63;;;8.40;;
6388;SDS011;3227;42.654;23.360;2024-02-26T05:33:32;15.27;;;8.10;;
6388;SDS011;3227;42.654;23.360;2024-02-26T05:35:59;15.87;;;8.60;;
6388;SDS011;3227;42.654;23.360;2024-02-26T05:38:29;16.73;;;9.13;;
6388;SDS011;3227;42.654;23.360;2024-02-26T05:40:56;16.53;;;9.10;;
6388;SDS011;3227;42.654;23.360;2024-02-26T05:43:39;18.00;;;9.17;;
6388;SDS011;3227;42.654;23.360;2024-02-26T05:46:07;13.27;;;8.50;;
6388;SDS011;3227;42.654;23.360;2024-02-26T05:48:33;14.37;;;8.27;;
6388;SDS011;3227;42.654;23.360;2024-02-26T05:51:00;14.40;;;8.80;;
6388;SDS011;3227;42.654;23.360;2024-02-26T05:53:27;18.53;;;9.23;;
6388;SDS011;3227;42.654;23.360;2024-02-26T05:55:53;15.33;;;9.40;;
6388;SDS011;3227;42.654;23.360;2024-02-26T05:58:20;17.57;;;9.47;;
6388;SDS011;3227;42.654;23.360;2024-02-26T06:00:47;15.13;;;9.57;;
6388;SDS011;3227;42.654;23.360;2024-02-26T06:03:15;16.13;;;9.27;;
6388;SDS011;3227;42.654;23.360;2024-02-26T06:05:42;14.73;;;8.93;;
6388;SDS011;3227;42.654;23.360;2024-02-26T06:08:11;26.03;;;14.13;;
6388;SDS011;3227;42.654;23.360;2024-02-26T06:10:38;14.73;;;8.80;;
6388;SDS011;3227;42.654;23.360;2024-02-26T06:13:05;18.17;;;9.43;;
6388;SDS011;3227;42.654;23.360;2024-02-26T06:15:32;15.77;;;9.40;;
6388;SDS011;3227;42.654;23.360;2024-02-26T06:17:59;17.97;;;9.80;;
6388;SDS011;3227;42.654;23.360;2024-02-26T06:20:27;21.23;;;9.67;;
6388;SDS011;3227;42.654;23.360;2024-02-26T06:22:54;14.90;;;9.03;;
6388;SDS011;3227;42.654;23.360;2024-02-26T06:25:20;14.43;;;9.03;;
6388;SDS011;3227;42.654;23.360;2024-02-26T06:27:47;20.13;;;9.50;;
6388;SDS011;3227;42.654;23.360;2024-02-26T06:30:14;16.03;;;9.10;;
6388;SDS011;3227;42.654;23.360;2024-02-26T06:32:41;18.17;;;10.13;;
6388;SDS011;3227;42.654;23.360;2024-02-26T06:35:07;17.07;;;9.90;;
6388;SDS011;3227;42.654;23.360;2024-02-26T06:37:38;18.53;;;9.77;;
6388;SDS011;3227;42.654;23.360;2024-02-26T06:40:05;17.03;;;9.80;;
6388;SDS011;3227;42.654;23.360;2024-02-26T06:42:32;19.07;;;10.80;;
6388;SDS011;3227;42.654;23.360;2024-02-26T06:44:59;17.93;;;11.20;;
6388;SDS011;3227;42.654;23.360;2024-02-26T06:47:26;18.90;;;9.70;;
6388;SDS011;3227;42.654;23.360;2024-02-26T06:49:53;15.63;;;9.43;;
6388;SDS011;3227;42.654;23.360;2024-02-26T06:52:23;15.83;;;9.40;;
6388;SDS011;3227;42.654;23.360;2024-02-26T06:54:52;15.10;;;9.07;;
6388;SDS011;3227;42.654;23.360;2024-02-26T06:57:19;17.30;;;9.90;;
6388;SDS011;3227;42.654;23.360;2024-02-26T06:59:45;19.77;;;9.07;;
6388;SDS011;3227;42.654;23.360;2024-02-26T07:02:12;17.33;;;9.43;;
6388;SDS011;3227;42.654;23.360;2024-02-26T07:04:39;16.03;;;9.10;;
6388;SDS011;3227;42.654;23.360;2024-02-26T07:07:07;13.87;;;8.57;;
6388;SDS011;3227;42.654;23.360;2024-02-26T07:09:33;15.47;;;8.50;;
6388;SDS011;3227;42.654;23.360;2024-02-26T07:12:02;14.37;;;7.97;;
6388;SDS011;3227;42.654;23.360;2024-02-26T07:14:28;12.97;;;7.70;;
6388;SDS011;3227;42.654;23.360;2024-02-26T07:16:55;16.07;;;9.07;;
6388;SDS011;3227;42.654;23.360;2024-02-26T07:19:23;14.77;;;8.33;;
6388;SDS011;3227;42.654;23.360;2024-02-26T07:21:50;15.27;;;7.90;;
6388;SDS011;3227;42.654;23.360;2024-02-26T07:24:16;14.80;;;9.33;;
6388;SDS011;3227;42.654;23.360;2024-02-26T07:26:43;13.47;;;8.57;;
6388;SDS011;3227;42.654;23.360;2024-02-26T07:29:11;15.07;;;7.27;;
6388;SDS011;3227;42.654;23.360;2024-02-26T07:31:38;13.68;;;7.97;;
6388;SDS011;3227;42.654;23.360;2024-02-26T07:34:04;12.25;;;6.72;;
6388;SDS011;3227;42.654;23.360;2024-02-26T07:36:31;13.20;;;6.57;;
6388;SDS011;3227;42.654;23.360;2024-02-26T07:38:58;10.93;;;6.60;;
6388;SDS011;3227;42.654;23.360;2024-02-26T07:41:24;12.88;;;8.15;;
6388;SDS011;3227;42.654;23.360;2024-02-26T07:43:51;12.83;;;8.10;;
6388;SDS011;3227;42.654;23.360;2024-02-26T07:46:19;13.68;;;8.27;;
6388;SDS011;3227;42.654;23.360;2024-02-26T07:48:46;15.17;;;8.20;;
6388;SDS011;3227;42.654;23.360;2024-02-26T07:51:13;15.70;;;8.05;;
6388;SDS011;3227;42.654;23.360;2024-02-26T07:53:40;13.93;;;7.50;;
6388;SDS011;3227;42.654;23.360;2024-02-26T07:56:07;13.13;;;6.33;;
6388;SDS011;3227;42.654;23.360;2024-02-26T07:58:33;11.77;;;7.20;;
6388;SDS011;3227;42.654;23.360;2024-02-26T08:01:00;12.40;;;6.53;;
6388;SDS011;3227;42.654;23.360;2024-02-26T08:03:28;12.60;;;6.47;;
6388;SDS011;3227;42.654;23.360;2024-02-26T08:05:55;11.53;;;5.60;;
6388;SDS011;3227;42.654;23.360;2024-02-26T08:08:22;12.27;;;5.90;;
6388;SDS011;3227;42.654;23.360;2024-02-26T08:10:48;9.70;;;5.57;;
6388;SDS011;3227;42.654;23.360;2024-02-26T08:13:15;12.27;;;5.47;;
6388;SDS011;3227;42.654;23.360;2024-02-26T08:15:42;12.35;;;5.90;;
6388;SDS011;3227;42.654;23.360;2024-02-26T08:18:08;9.85;;;5.53;;
6388;SDS011;3227;42.654;23.360;2024-02-26T08:20:36;9.70;;;5.17;;
6388;SDS011;3227;42.654;23.360;2024-02-26T08:23:04;15.23;;;7.27;;
6388;SDS011;3227;42.654;23.360;2024-02-26T08:25:30;14.98;;;8.55;;
6388;SDS011;3227;42.654;23.360;2024-02-26T08:27:57;14.10;;;7.68;;
6388;SDS011;3227;42.654;23.360;2024-02-26T08:30:24;11.93;;;7.20;;
6388;SDS011;3227;42.654;23.360;2024-02-26T08:32:51;9.90;;;5.90;;
6388;SDS011;3227;42.654;23.360;2024-02-26T08:35:18;12.55;;;6.93;;
6388;SDS011;3227;42.654;23.360;2024-02-26T08:40:29;11.13;;;4.77;;
6388;SDS011;3227;42.654;23.360;2024-02-26T08:42:55;10.50;;;4.60;;
6388;SDS011;3227;42.654;23.360;2024-02-26T08:45:25;8.20;;;5.00;;
6388;SDS011;3227;42.654;23.360;2024-02-26T08:47:54;8.67;;;5.20;;
6388;SDS011;3227;42.654;23.360;2024-02-26T08:50:21;10.50;;;4.67;;
6388;SDS011;3227;42.654;23.360;2024-02-26T08:52:47;10.13;;;4.77;;
6388;SDS011;3227;42.654;23.360;2024-02-26T08:55:17;9.43;;;5.10;;
6388;SDS011;3227;42.654;23.360;2024-02-26T08:57:44;9.87;;;5.17;;
6388;SDS011;3227;42.654;23.360;2024-02-26T09:00:11;11.77;;;5.30;;
6388;SDS011;3227;42.654;23.360;2024-02-26T09:02:40;10.07;;;5.40;;
6388;SDS011;3227;42.654;23.360;2024-02-26T09:05:14;12.53;;;5.13;;
6388;SDS011;3227;42.654;23.360;2024-02-26T09:07:41;11.17;;;5.67;;
6388;SDS011;3227;42.654;23.360;2024-02-26T09:10:08;11.77;;;5.67;;
6388;SDS011;3227;42.654;23.360;2024-02-26T09:12:37;12.20;;;5.80;;
6388;SDS011;3227;42.654;23.360;2024-02-26T09:15:05;10.50;;;6.10;;
6388;SDS011;3227;42.654;23.360;2024-02-26T09:17:33;13.18;;;7.15;;
6388;SDS011;3227;42.654;23.360;2024-02-26T09:20:00;11.10;;;6.70;;
6388;SDS011;3227;42.654;23.360;2024-02-26T09:22:26;12.30;;;6.50;;
6388;SDS011;3227;42.654;23.360;2024-02-26T09:24:53;11.07;;;5.40;;
6388;SDS011;3227;42.654;23.360;2024-02-26T09:27:20;8.30;;;4.27;;
6388;SDS011;3227;42.654;23.360;2024-02-26T09:29:50;7.73;;;4.30;;
6388;SDS011;3227;42.654;23.360;2024-02-26T09:32:16;9.23;;;4.70;;
6388;SDS011;3227;42.654;23.360;2024-02-26T09:34:43;8.77;;;4.40;;
6388;SDS011;3227;42.654;23.360;2024-02-26T09:37:10;10.13;;;5.00;;
6388;SDS011;3227;42.654;23.360;2024-02-26T09:39:37;9.70;;;4.90;;
6388;SDS011;3227;42.654;23.360;2024-02-26T09:42:04;9.13;;;5.10;;
6388;SDS011;3227;42.654;23.360;2024-02-26T09:44:34;10.90;;;4.53;;
6388;SDS011;3227;42.654;23.360;2024-02-26T09:47:05;8.27;;;4.40;;
6388;SDS011;3227;42.654;23.360;2024-02-26T09:49:34;10.70;;;4.97;;
6388;SDS011;3227;42.654;23.360;2024-02-26T09:52:02;9.10;;;4.40;;
6388;SDS011;3227;42.654;23.360;2024-02-26T09:54:30;9.90;;;4.60;;
6388;SDS011;3227;42.654;23.360;2024-02-26T09:56:59;9.20;;;4.83;;
6388;SDS011;3227;42.654;23.360;2024-02-26T09:59:27;6.73;;;4.13;;
6388;SDS011;3227;42.654;23.360;2024-02-26T10:01:59;7.63;;;4.70;;
6388;SDS011;3227;42.654;23.360;2024-02-26T10:04:29;9.27;;;4.37;;
6388;SDS011;3227;42.654;23.360;2024-02-26T10:06:57;7.70;;;4.27;;
6388;SDS011;3227;42.654;23.360;2024-02-26T10:09:26;11.53;;;5.23;;
6388;SDS011;3227;42.654;23.360;2024-02-26T10:11:53;7.93;;;4.97;;
6388;SDS011;3227;42.654;23.360;2024-02-26T10:14:20;10.07;;;5.37;;
6388;SDS011;3227;42.654;23.360;2024-02-26T10:16:47;10.70;;;5.00;;
6388;SDS011;3227;42.654;23.360;2024-02-26T10:19:24;10.57;;;5.03;;
6388;SDS011;3227;42.654;23.360;2024-02-26T10:21:54;9.87;;;4.90;;
6388;SDS011;3227;42.654;23.360;2024-02-26T10:27:13;9.30;;;5.13;;
6388;SDS011;3227;42.654;23.360;2024-02-26T10:29:41;9.40;;;5.30;;
6388;SDS011;3227;42.654;23.360;2024-02-26T10:32:08;9.33;;;4.60;;
6388;SDS011;3227;42.654;23.360;2024-02-26T10:34:36;9.83;;;5.10;;
6388;SDS011;3227;42.654;23.360;2024-02-26T10:37:06;8.10;;;4.60;;
6388;SDS011;3227;42.654;23.360;2024-02-26T10:39:32;8.77;;;4.70;;
6388;SDS011;3227;42.654;23.360;2024-02-26T10:41:59;9.83;;;4.73;;
6388;SDS011;3227;42.654;23.360;2024-02-26T10:44:31;7.77;;;3.90;;
6388;SDS011;3227;42.654;23.360;2024-02-26T10:46:58;9.70;;;4.93;;
6388;SDS011;3227;42.654;23.360;2024-02-26T10:49:25;10.00;;;5.00;;
6388;SDS011;3227;42.654;23.360;2024-02-26T10:51:54;10.13;;;4.50;;
6388;SDS011;3227;42.654;23.360;2024-02-26T10:54:24;7.97;;;4.50;;
6388;SDS011;3227;42.654;23.360;2024-02-26T10:56:53;8.60;;;4.90;;
6388;SDS011;3227;42.654;23.360;2024-02-26T10:59:22;8.73;;;4.17;;
6388;SDS011;3227;42.654;23.360;2024-02-26T11:01:49;10.60;;;4.33;;
6388;SDS011;3227;42.654;23.360;2024-02-26T11:04:17;8.80;;;4.43;;
6388;SDS011;3227;42.654;23.360;2024-02-26T11:06:44;10.43;;;4.63;;
6388;SDS011;3227;42.654;23.360;2024-02-26T11:09:12;8.37;;;4.73;;
6388;SDS011;3227;42.654;23.360;2024-02-26T11:11:41;8.43;;;4.30;;
6388;SDS011;3227;42.654;23.360;2024-02-26T11:14:09;7.70;;;4.50;;
6388;SDS011;3227;42.654;23.360;2024-02-26T11:16:36;9.03;;;4.47;;
6388;SDS011;3227;42.654;23.360;2024-02-26T11:19:06;8.03;;;4.80;;
6388;SDS011;3227;42.654;23.360;2024-02-26T11:21:35;8.53;;;4.80;;
6388;SDS011;3227;42.654;23.360;2024-02-26T11:24:06;8.20;;;4.17;;
6388;SDS011;3227;42.654;23.360;2024-02-26T11:26:34;9.35;;;5.25;;
6388;SDS011;3227;42.654;23.360;2024-02-26T11:29:06;10.27;;;4.77;;
6388;SDS011;3227;42.654;23.360;2024-02-26T11:31:36;13.97;;;4.90;;
6388;SDS011;3227;42.654;23.360;2024-02-26T11:34:04;8.07;;;4.83;;
6388;SDS011;3227;42.654;23.360;2024-02-26T11:36:33;8.20;;;4.50;;
6388;SDS011;3227;42.654;23.360;2024-02-26T11:39:00;11.07;;;5.80;;
6388;SDS011;3227;42.654;23.360;2024-02-26T11:41:27;7.35;;;3.92;;
6388;SDS011;3227;42.654;23.360;2024-02-26T11:43:57;12.67;;;4.17;;
6388;SDS011;3227;42.654;23.360;2024-02-26T11:46:28;7.63;;;4.63;;
6388;SDS011;3227;42.654;23.360;2024-02-26T11:48:58;8.15;;;4.47;;
6388;SDS011;3227;42.654;23.360;2024-02-26T11:51:26;11.38;;;4.60;;
6388;SDS011;3227;42.654;23.360;2024-02-26T11:53:54;8.30;;;4.60;;
6388;SDS011;3227;42.654;23.360;2024-02-26T11:56:23;6.97;;;3.97;;
6388;SDS011;3227;42.654;23.360;2024-02-26T11:58:58;7.93;;;4.10;;
6388;SDS011;3227;42.654;23.360;2024-02-26T12:01:44;7.47;;;3.80;;
6388;SDS011;3227;42.654;23.360;2024-02-26T12:04:14;12.00;;;4.17;;
6388;SDS011;3227;42.654;23.360;2024-02-26T12:06:44;6.40;;;3.83;;
6388;SDS011;3227;42.654;23.360;2024-02-26T12:09:12;7.32;;;3.90;;
6388;SDS011;3227;42.654;23.360;2024-02-26T12:11:39;7.10;;;3.80;;
6388;SDS011;3227;42.654;23.360;2024-02-26T12:14:07;6.47;;;3.67;;
6388;SDS011;3227;42.654;23.360;2024-02-26T12:16:35;7.30;;;4.07;;
6388;SDS011;3227;42.654;23.360;2024-02-26T12:19:08;6.87;;;3.67;;
6388;SDS011;3227;42.654;23.360;2024-02-26T12:21:35;10.07;;;3.90;;
6388;SDS011;3227;42.654;23.360;2024-02-26T12:24:10;7.40;;;3.80;;
6388;SDS011;3227;42.654;23.360;2024-02-26T12:26:37;7.80;;;4.07;;
6388;SDS011;3227;42.654;23.360;2024-02-26T12:29:04;8.55;;;3.80;;
6388;SDS011;3227;42.654;23.360;2024-02-26T12:31:31;8.15;;;4.10;;
6388;SDS011;3227;42.654;23.360;2024-02-26T12:33:58;9.00;;;3.87;;
6388;SDS011;3227;42.654;23.360;2024-02-26T12:36:27;6.93;;;3.57;;
6388;SDS011;3227;42.654;23.360;2024-02-26T12:38:54;7.97;;;4.00;;
6388;SDS011;3227;42.654;23.360;2024-02-26T12:41:21;7.38;;;3.90;;
6388;SDS011;3227;42.654;23.360;2024-02-26T12:43:48;7.30;;;3.90;;
6388;SDS011;3227;42.654;23.360;2024-02-26T12:46:15;8.90;;;4.03;;
6388;SDS011;3227;42.654;23.360;2024-02-26T12:48:42;6.33;;;3.53;;
6388;SDS011;3227;42.654;23.360;2024-02-26T12:51:09;7.53;;;3.87;;
6388;SDS011;3227;42.654;23.360;2024-02-26T12:53:39;6.95;;;4.03;;
6388;SDS011;3227;42.654;23.360;2024-02-26T12:56:06;7.13;;;3.90;;
6388;SDS011;3227;42.654;23.360;2024-02-26T12:58:35;8.23;;;4.05;;
6388;SDS011;3227;42.654;23.360;2024-02-26T13:01:05;8.00;;;3.95;;
6388;SDS011;3227;42.654;23.360;2024-02-26T13:03:32;8.33;;;4.00;;
6388;SDS011;3227;42.654;23.360;2024-02-26T13:06:00;8.57;;;3.60;;
6388;SDS011;3227;42.654;23.360;2024-02-26T13:08:28;7.57;;;4.07;;
6388;SDS011;3227;42.654;23.360;2024-02-26T13:10:56;8.37;;;4.03;;
6388;SDS011;3227;42.654;23.360;2024-02-26T13:13:29;8.07;;;3.90;;
6388;SDS011;3227;42.654;23.360;2024-02-26T13:16:01;7.33;;;3.43;;
6388;SDS011;3227;42.654;23.360;2024-02-26T13:18:28;5.93;;;3.30;;
6388;SDS011;3227;42.654;23.360;2024-02-26T13:21:05;7.27;;;3.87;;
6388;SDS011;3227;42.654;23.360;2024-02-26T13:23:36;6.20;;;3.40;;
6388;SDS011;3227;42.654;23.360;2024-02-26T13:26:08;6.20;;;3.17;;
6388;SDS011;3227;42.654;23.360;2024-02-26T13:28:38;7.25;;;3.40;;
6388;SDS011;3227;42.654;23.360;2024-02-26T13:31:04;7.07;;;3.47;;
6388;SDS011;3227;42.654;23.360;2024-02-26T13:33:33;10.80;;;3.57;;
6388;SDS011;3227;42.654;23.360;2024-02-26T13:36:00;6.70;;;3.67;;
6388;SDS011;3227;42.654;23.360;2024-02-26T13:38:27;7.83;;;3.67;;
6388;SDS011;3227;42.654;23.360;2024-02-26T13:40:54;6.82;;;3.42;;
6388;SDS011;3227;42.654;23.360;2024-02-26T13:43:23;9.43;;;3.40;;
6388;SDS011;3227;42.654;23.360;2024-02-26T13:45:49;9.65;;;3.83;;
6388;SDS011;3227;42.654;23.360;2024-02-26T13:48:17;8.47;;;3.50;;
6388;SDS011;3227;42.654;23.360;2024-02-26T13:50:43;5.93;;;3.43;;
6388;SDS011;3227;42.654;23.360;2024-02-26T13:53:14;6.07;;;3.07;;
6388;SDS011;3227;42.654;23.360;2024-02-26T13:55:44;7.40;;;3.30;;
6388;SDS011;3227;42.654;23.360;2024-02-26T13:58:14;7.53;;;3.70;;
6388;SDS011;3227;42.654;23.360;2024-02-26T14:00:49;8.33;;;3.60;;
6388;SDS011;3227;42.654;23.360;2024-02-26T14:03:16;6.10;;;3.20;;
6388;SDS011;3227;42.654;23.360;2024-02-26T14:05:43;8.43;;;3.90;;
6388;SDS011;3227;42.654;23.360;2024-02-26T14:08:09;8.90;;;3.57;;
6388;SDS011;3227;42.654;23.360;2024-02-26T14:10:36;5.77;;;3.20;;
6388;SDS011;3227;42.654;23.360;2024-02-26T14:13:03;7.60;;;3.43;;
6388;SDS011;3227;42.654;23.360;2024-02-26T14:15:29;6.17;;;3.17;;
6388;SDS011;3227;42.654;23.360;2024-02-26T14:17:59;5.83;;;3.17;;
6388;SDS011;3227;42.654;23.360;2024-02-26T14:20:27;6.70;;;3.10;;
6388;SDS011;3227;42.654;23.360;2024-02-26T14:22:54;5.87;;;2.90;;
6388;SDS011;3227;42.654;23.360;2024-02-26T14:25:21;5.90;;;2.90;;
6388;SDS011;3227;42.654;23.360;2024-02-26T14:27:48;8.13;;;3.47;;
6388;SDS011;3227;42.654;23.360;2024-02-26T14:30:15;6.60;;;3.50;;
6388;SDS011;3227;42.654;23.360;2024-02-26T14:32:42;9.10;;;3.80;;
6388;SDS011;3227;42.654;23.360;2024-02-26T14:35:10;7.33;;;3.50;;
6388;SDS011;3227;42.654;23.360;2024-02-26T14:37:37;5.80;;;2.90;;
6388;SDS011;3227;42.654;23.360;2024-02-26T14:40:04;7.03;;;3.47;;
6388;SDS011;3227;42.654;23.360;2024-02-26T14:42:31;7.80;;;3.67;;
6388;SDS011;3227;42.654;23.360;2024-02-26T14:44:58;6.43;;;3.23;;
6388;SDS011;3227;42.654;23.360;2024-02-26T14:47:25;7.13;;;3.20;;
6388;SDS011;3227;42.654;23.360;2024-02-26T14:49:51;6.57;;;3.30;;
6388;SDS011;3227;42.654;23.360;2024-02-26T14:52:19;6.33;;;3.10;;
6388;SDS011;3227;42.654;23.360;2024-02-26T14:54:46;9.20;;;4.27;;
6388;SDS011;3227;42.654;23.360;2024-02-26T14:57:13;7.93;;;3.20;;
6388;SDS011;3227;42.654;23.360;2024-02-26T14:59:40;6.00;;;2.97;;